sensor_id;sensor_type;location;lat;lon;timestamp;temperature;humidity
69393;SHT31;56582;44.624;20.378;2023-07-20T16:23:48;29.54;58.95
69393;SHT31;56582;44.624;20.378;2023-07-20T16:26:13;29.67;60.55
69393;SHT31;56582;44.624;20.378;2023-07-20T16:28:39;29.47;58.76
69393;SHT31;56582;44.624;20.378;2023-07-20T18:45:32;25.70;76.03
69393;SHT31;56582;44.624;20.378;2023-07-20T18:47:57;25.80;73.45
69393;SHT31;56582;44.624;20.378;2023-07-20T18:50:24;25.36;74.56
69393;SHT31;56582;44.624;20.378;2023-07-20T18:52:49;25.10;75.27
69393;SHT31;56582;44.624;20.378;2023-07-20T18:55:16;24.93;74.71
69393;SHT31;56582;44.624;20.378;2023-07-20T18:57:42;24.93;75.32
69393;SHT31;56582;44.624;20.378;2023-07-20T19:00:08;24.89;76.04
69393;SHT31;56582;44.624;20.378;2023-07-20T19:02:35;24.86;75.42
69393;SHT31;56582;44.624;20.378;2023-07-20T19:05:01;24.72;75.73
69393;SHT31;56582;44.624;20.378;2023-07-20T19:07:27;24.68;75.90
69393;SHT31;56582;44.624;20.378;2023-07-20T19:09:52;24.67;75.68
69393;SHT31;56582;44.624;20.378;2023-07-20T19:12:17;24.59;75.73
69393;SHT31;56582;44.624;20.378;2023-07-20T19:14:43;24.49;75.81
69393;SHT31;56582;44.624;20.378;2023-07-20T19:17:08;24.45;75.65
69393;SHT31;56582;44.624;20.378;2023-07-20T19:19:34;24.49;75.94
69393;SHT31;56582;44.624;20.378;2023-07-20T19:21:59;24.47;75.85
69393;SHT31;56582;44.624;20.378;2023-07-20T19:24:25;24.38;75.64
69393;SHT31;56582;44.624;20.378;2023-07-20T19:26:50;24.31;76.10
69393;SHT31;56582;44.624;20.378;2023-07-20T19:29:16;24.27;75.87
69393;SHT31;56582;44.624;20.378;2023-07-20T19:31:41;24.20;76.11
69393;SHT31;56582;44.624;20.378;2023-07-20T19:34:07;24.13;76.12
69393;SHT31;56582;44.624;20.378;2023-07-20T19:36:33;24.14;76.02
69393;SHT31;56582;44.624;20.378;2023-07-20T19:38:58;24.16;75.84
69393;SHT31;56582;44.624;20.378;2023-07-20T19:41:25;24.21;75.80
69393;SHT31;56582;44.624;20.378;2023-07-20T19:43:51;24.25;75.53
69393;SHT31;56582;44.624;20.378;2023-07-20T19:46:16;24.25;76.13
69393;SHT31;56582;44.624;20.378;2023-07-20T19:48:41;24.22;75.78
69393;SHT31;56582;44.624;20.378;2023-07-20T19:51:07;24.28;75.45
69393;SHT31;56582;44.624;20.378;2023-07-20T19:53:33;24.22;74.98
69393;SHT31;56582;44.624;20.378;2023-07-20T19:56:01;24.13;74.93
69393;SHT31;56582;44.624;20.378;2023-07-20T19:58:28;24.10;74.69
69393;SHT31;56582;44.624;20.378;2023-07-20T20:00:54;24.10;74.88
69393;SHT31;56582;44.624;20.378;2023-07-20T20:03:19;24.01;75.00
69393;SHT31;56582;44.624;20.378;2023-07-20T20:05:44;24.04;74.27
69393;SHT31;56582;44.624;20.378;2023-07-20T20:08:10;24.06;75.56
69393;SHT31;56582;44.624;20.378;2023-07-20T20:10:37;24.00;75.03
69393;SHT31;56582;44.624;20.378;2023-07-20T20:13:02;23.97;75.22
69393;SHT31;56582;44.624;20.378;2023-07-20T20:15:28;23.90;75.59
69393;SHT31;56582;44.624;20.378;2023-07-20T20:17:54;23.80;76.04
69393;SHT31;56582;44.624;20.378;2023-07-20T20:20:20;23.82;75.24
69393;SHT31;56582;44.624;20.378;2023-07-20T20:22:47;23.92;75.00
69393;SHT31;56582;44.624;20.378;2023-07-20T20:25:13;23.99;75.28
69393;SHT31;56582;44.624;20.378;2023-07-20T20:27:38;23.97;75.96
69393;SHT31;56582;44.624;20.378;2023-07-20T20:30:08;23.94;75.27
69393;SHT31;56582;44.624;20.378;2023-07-20T20:32:34;24.00;74.59
69393;SHT31;56582;44.624;20.378;2023-07-20T20:35:07;24.01;74.30
69393;SHT31;56582;44.624;20.378;2023-07-20T20:37:33;24.14;72.17
69393;SHT31;56582;44.624;20.378;2023-07-20T20:39:58;24.22;73.34
69393;SHT31;56582;44.624;20.378;2023-07-20T20:42:24;24.22;73.49
69393;SHT31;56582;44.624;20.378;2023-07-20T20:44:49;24.13;75.11
69393;SHT31;56582;44.624;20.378;2023-07-20T20:47:15;24.11;75.32
69393;SHT31;56582;44.624;20.378;2023-07-20T20:49:42;24.13;74.84
69393;SHT31;56582;44.624;20.378;2023-07-20T20:52:14;23.97;75.40
69393;SHT31;56582;44.624;20.378;2023-07-20T20:54:42;23.69;76.06
69393;SHT31;56582;44.624;20.378;2023-07-20T20:57:07;23.62;76.25
69393;SHT31;56582;44.624;20.378;2023-07-20T20:59:33;23.76;76.13
69393;SHT31;56582;44.624;20.378;2023-07-20T21:02:03;23.77;75.02
69393;SHT31;56582;44.624;20.378;2023-07-20T21:04:29;23.76;75.78
69393;SHT31;56582;44.624;20.378;2023-07-20T21:06:55;23.63;77.62
69393;SHT31;56582;44.624;20.378;2023-07-20T21:09:20;23.73;75.82
69393;SHT31;56582;44.624;20.378;2023-07-20T21:11:46;23.67;75.74
69393;SHT31;56582;44.624;20.378;2023-07-20T21:14:12;23.65;76.31
69393;SHT31;56582;44.624;20.378;2023-07-20T21:16:37;23.53;77.25
69393;SHT31;56582;44.624;20.378;2023-07-20T21:19:02;23.65;77.17
69393;SHT31;56582;44.624;20.378;2023-07-20T21:21:28;23.70;76.63
69393;SHT31;56582;44.624;20.378;2023-07-20T21:23:53;23.45;78.57
69393;SHT31;56582;44.624;20.378;2023-07-20T21:26:19;23.37;79.04
69393;SHT31;56582;44.624;20.378;2023-07-20T21:28:45;23.38;78.61
69393;SHT31;56582;44.624;20.378;2023-07-20T21:31:12;23.45;78.85
69393;SHT31;56582;44.624;20.378;2023-07-20T21:33:40;23.35;79.25
69393;SHT31;56582;44.624;20.378;2023-07-20T21:36:07;23.25;78.99
69393;SHT31;56582;44.624;20.378;2023-07-20T21:38:33;23.19;79.25
69393;SHT31;56582;44.624;20.378;2023-07-20T21:41:02;23.29;79.27
69393;SHT31;56582;44.624;20.378;2023-07-20T21:43:28;23.19;79.14
69393;SHT31;56582;44.624;20.378;2023-07-20T21:45:54;22.97;80.49
69393;SHT31;56582;44.624;20.378;2023-07-20T21:48:19;23.04;79.58
69393;SHT31;56582;44.624;20.378;2023-07-20T21:50:49;23.10;80.61
69393;SHT31;56582;44.624;20.378;2023-07-20T21:53:15;23.01;80.70
69393;SHT31;56582;44.624;20.378;2023-07-20T21:55:42;23.00;79.92
69393;SHT31;56582;44.624;20.378;2023-07-20T21:58:07;22.95;80.13
69393;SHT31;56582;44.624;20.378;2023-07-20T22:00:33;23.00;79.45
69393;SHT31;56582;44.624;20.378;2023-07-20T22:02:59;22.91;80.45
69393;SHT31;56582;44.624;20.378;2023-07-20T22:05:24;22.86;81.06
69393;SHT31;56582;44.624;20.378;2023-07-20T22:07:49;22.70;81.16
69393;SHT31;56582;44.624;20.378;2023-07-20T22:10:16;22.70;80.47
69393;SHT31;56582;44.624;20.378;2023-07-20T22:12:42;22.76;80.50
69393;SHT31;56582;44.624;20.378;2023-07-20T22:15:08;22.61;80.87
69393;SHT31;56582;44.624;20.378;2023-07-20T22:17:35;22.50;81.80
69393;SHT31;56582;44.624;20.378;2023-07-20T22:20:02;22.57;81.76
69393;SHT31;56582;44.624;20.378;2023-07-20T22:22:30;22.77;81.24
69393;SHT31;56582;44.624;20.378;2023-07-20T22:24:55;22.78;80.42
69393;SHT31;56582;44.624;20.378;2023-07-20T22:27:21;22.64;80.35
69393;SHT31;56582;44.624;20.378;2023-07-20T22:29:46;22.61;80.97
69393;SHT31;56582;44.624;20.378;2023-07-20T22:32:12;22.70;80.76
69393;SHT31;56582;44.624;20.378;2023-07-20T22:34:37;22.77;81.16
69393;SHT31;56582;44.624;20.378;2023-07-20T22:37:04;22.71;80.85
69393;SHT31;56582;44.624;20.378;2023-07-20T22:39:30;22.80;79.51
69393;SHT31;56582;44.624;20.378;2023-07-20T22:41:57;22.87;81.00
69393;SHT31;56582;44.624;20.378;2023-07-20T22:44:23;22.86;81.53
69393;SHT31;56582;44.624;20.378;2023-07-20T22:46:48;22.88;81.06
69393;SHT31;56582;44.624;20.378;2023-07-20T22:49:14;22.66;82.01
69393;SHT31;56582;44.624;20.378;2023-07-20T22:51:39;22.83;81.88
69393;SHT31;56582;44.624;20.378;2023-07-20T22:54:05;22.80;80.77
69393;SHT31;56582;44.624;20.378;2023-07-20T22:56:30;22.78;81.42
69393;SHT31;56582;44.624;20.378;2023-07-20T22:58:57;22.77;79.88
69393;SHT31;56582;44.624;20.378;2023-07-20T23:01:22;22.81;80.93
69393;SHT31;56582;44.624;20.378;2023-07-20T23:03:48;22.87;81.63
69393;SHT31;56582;44.624;20.378;2023-07-20T23:06:13;22.84;80.78
69393;SHT31;56582;44.624;20.378;2023-07-20T23:08:39;22.88;78.92
69393;SHT31;56582;44.624;20.378;2023-07-20T23:11:04;22.86;79.29
69393;SHT31;56582;44.624;20.378;2023-07-20T23:13:32;22.91;79.47
69393;SHT31;56582;44.624;20.378;2023-07-20T23:16:02;22.88;78.69
69393;SHT31;56582;44.624;20.378;2023-07-20T23:18:28;22.81;79.96
69393;SHT31;56582;44.624;20.378;2023-07-20T23:20:54;22.78;81.85
69393;SHT31;56582;44.624;20.378;2023-07-20T23:23:19;22.87;81.29
69393;SHT31;56582;44.624;20.378;2023-07-20T23:25:54;22.77;82.39
69393;SHT31;56582;44.624;20.378;2023-07-20T23:28:19;22.45;83.69
69393;SHT31;56582;44.624;20.378;2023-07-20T23:30:46;22.49;80.45
69393;SHT31;56582;44.624;20.378;2023-07-20T23:33:18;22.66;80.94
69393;SHT31;56582;44.624;20.378;2023-07-20T23:35:44;22.52;81.41
69393;SHT31;56582;44.624;20.378;2023-07-20T23:38:10;22.39;83.58
69393;SHT31;56582;44.624;20.378;2023-07-20T23:40:36;22.30;84.29
69393;SHT31;56582;44.624;20.378;2023-07-20T23:43:01;22.30;83.68
69393;SHT31;56582;44.624;20.378;2023-07-20T23:45:27;22.19;83.80
69393;SHT31;56582;44.624;20.378;2023-07-20T23:47:54;22.10;84.06
69393;SHT31;56582;44.624;20.378;2023-07-20T23:50:19;21.97;84.87
69393;SHT31;56582;44.624;20.378;2023-07-20T23:52:45;22.04;85.09
69393;SHT31;56582;44.624;20.378;2023-07-20T23:55:10;22.18;84.56
69393;SHT31;56582;44.624;20.378;2023-07-20T23:57:41;22.02;84.43
